Hlavní strana
METAR-TAF:

METAR-TAF

Letiště :

Uppsala, Švédsko

zeměpisná šířka: 59-53N, zeměpisná délka: 017-36E, výška: 21 m

Aktuální stav počasí

Zpráva byla vytvořena před 26 minutami, v 03:20 UTC
Bezvětří
Teplota -12°C
Vlhkost vzduchu 92%
Tlak 997 hPa
Viditelnost 10 km a více

METAR: ESCM 160320Z AUTO 00000KT 9999 NCD M12/M13 Q0997

Čas: 04:46 (03:46 UTC)

Předpověď počasí

Zpráva byla vytvořena před 16 hodinami a 21 minutami, v 11:25 UTC
Předpověď platná od 15 v 12 UTC do 15 v 15 UTC
Západoseverozápadní vítr 7 kt
Viditelnost 10 km a více
Žádná oblačnost pod 1500 m, nevyskytují se cumulonimby.

TAF: ESCM 151125Z 1512/1515 30007KT CAVOK RMK MIL

Stav a předpovědi počasí z více než 4 000 letišť (zprávy METAR a TAF).

Červené a žluté tečky na mapě představují dostupné meteorologické stanice.

Když kurzor umístíte na tečku, zobrazí se název stanice.

Pak kliknutím zobrazíte stav a předpověď počasí.

Chcete-li změnit mapu, kliknutím na zelené tlačítko se znaménkem +mapu přiblížíte, kliknutím na zelené tlačítko se znaménkem – mapu oddálíte a kliknutím na zelené šipky přejdete na sousední mapy.


METAR-TAF: